Terminal Aerodrome Forecast
Issued by NWS

Home | Current Version | Previous Version | Text Only | Print | Product List | Glossary On
Versions: 1 2 3 4 5 6 7 8 9 10 11 12 13 14 15 16 17 18 19 20 21 22 23 24 25 26
000
FTUS45 KTFX 272300
TAFCTB
TAF
KCTB 272339Z 2800/2824 26024G34KT P6SM FEW100 SCT200
     FM281500 26028G38KT P6SM SCT060 BKN100
     FM282200 33018G25KT P6SM SCT015 BKN060=

USA.gov is the U.S. government's official web portal to all federal, state and local government web resources and services.